sensor_id;sensor_type;location;lat;lon;timestamp;P1;durP1;ratioP1;P2;durP2;ratioP2
33926;SDS011;20485;50.992;5.550;2024-01-06T15:09:01;14.97;;;6.67;;
33926;SDS011;20485;50.992;5.550;2024-01-06T15:11:33;9.90;;;5.80;;
33926;SDS011;20485;50.992;5.550;2024-01-06T15:13:58;9.57;;;5.93;;
33926;SDS011;20485;50.992;5.550;2024-01-06T15:16:27;9.90;;;5.85;;
33926;SDS011;20485;50.992;5.550;2024-01-06T15:18:53;9.10;;;6.20;;
33926;SDS011;20485;50.992;5.550;2024-01-06T15:21:20;13.57;;;5.80;;
33926;SDS011;20485;50.992;5.550;2024-01-06T15:23:48;13.32;;;7.20;;
33926;SDS011;20485;50.992;5.550;2024-01-06T15:26:20;9.05;;;6.13;;
33926;SDS011;20485;50.992;5.550;2024-01-06T15:28:49;11.45;;;6.20;;
33926;SDS011;20485;50.992;5.550;2024-01-06T15:31:15;14.07;;;5.80;;
33926;SDS011;20485;50.992;5.550;2024-01-06T15:33:41;12.35;;;6.55;;
33926;SDS011;20485;50.992;5.550;2024-01-06T15:36:12;8.82;;;5.78;;
33926;SDS011;20485;50.992;5.550;2024-01-06T15:38:37;13.52;;;7.07;;
33926;SDS011;20485;50.992;5.550;2024-01-06T15:41:03;12.15;;;6.95;;
33926;SDS011;20485;50.992;5.550;2024-01-06T15:43:29;13.32;;;7.88;;
33926;SDS011;20485;50.992;5.550;2024-01-06T15:45:55;10.70;;;6.72;;
33926;SDS011;20485;50.992;5.550;2024-01-06T15:48:21;13.23;;;7.78;;
33926;SDS011;20485;50.992;5.550;2024-01-06T15:50:47;12.82;;;7.88;;
33926;SDS011;20485;50.992;5.550;2024-01-06T15:53:13;15.15;;;9.13;;
33926;SDS011;20485;50.992;5.550;2024-01-06T15:55:39;13.30;;;7.65;;
33926;SDS011;20485;50.992;5.550;2024-01-06T15:58:06;13.80;;;7.90;;
33926;SDS011;20485;50.992;5.550;2024-01-06T16:00:32;16.60;;;8.02;;
33926;SDS011;20485;50.992;5.550;2024-01-06T16:02:59;17.95;;;8.73;;
33926;SDS011;20485;50.992;5.550;2024-01-06T16:05:25;14.15;;;8.35;;
33926;SDS011;20485;50.992;5.550;2024-01-06T16:07:51;16.25;;;8.02;;
33926;SDS011;20485;50.992;5.550;2024-01-06T16:10:17;13.82;;;8.50;;
33926;SDS011;20485;50.992;5.550;2024-01-06T16:12:46;20.50;;;8.63;;
33926;SDS011;20485;50.992;5.550;2024-01-06T16:15:18;18.60;;;8.35;;
33926;SDS011;20485;50.992;5.550;2024-01-06T16:17:45;14.55;;;7.38;;
33926;SDS011;20485;50.992;5.550;2024-01-06T16:20:11;19.02;;;8.57;;
33926;SDS011;20485;50.992;5.550;2024-01-06T16:22:37;13.98;;;7.88;;
33926;SDS011;20485;50.992;5.550;2024-01-06T16:25:03;18.85;;;8.23;;
33926;SDS011;20485;50.992;5.550;2024-01-06T16:27:29;11.85;;;8.10;;
33926;SDS011;20485;50.992;5.550;2024-01-06T16:29:56;14.38;;;7.78;;
33926;SDS011;20485;50.992;5.550;2024-01-06T16:32:23;11.73;;;6.93;;
33926;SDS011;20485;50.992;5.550;2024-01-06T16:34:49;12.00;;;7.70;;
33926;SDS011;20485;50.992;5.550;2024-01-06T16:37:14;14.77;;;9.18;;
33926;SDS011;20485;50.992;5.550;2024-01-06T16:39:42;12.20;;;7.43;;
33926;SDS011;20485;50.992;5.550;2024-01-06T16:42:07;14.70;;;8.52;;
33926;SDS011;20485;50.992;5.550;2024-01-06T16:44:33;15.35;;;8.32;;
33926;SDS011;20485;50.992;5.550;2024-01-06T16:46:59;18.63;;;8.73;;
33926;SDS011;20485;50.992;5.550;2024-01-06T16:49:25;16.38;;;9.07;;
33926;SDS011;20485;50.992;5.550;2024-01-06T16:51:53;15.13;;;9.20;;
33926;SDS011;20485;50.992;5.550;2024-01-06T16:54:19;16.38;;;9.27;;
33926;SDS011;20485;50.992;5.550;2024-01-06T16:56:45;21.23;;;10.45;;
33926;SDS011;20485;50.992;5.550;2024-01-06T16:59:11;18.05;;;10.43;;
33926;SDS011;20485;50.992;5.550;2024-01-06T17:01:37;18.55;;;10.55;;
33926;SDS011;20485;50.992;5.550;2024-01-06T17:04:02;17.58;;;9.48;;
33926;SDS011;20485;50.992;5.550;2024-01-06T17:06:28;21.70;;;11.02;;
33926;SDS011;20485;50.992;5.550;2024-01-06T17:08:54;23.17;;;12.57;;
33926;SDS011;20485;50.992;5.550;2024-01-06T17:11:20;21.02;;;10.85;;
33926;SDS011;20485;50.992;5.550;2024-01-06T17:13:46;19.70;;;11.23;;
33926;SDS011;20485;50.992;5.550;2024-01-06T17:16:12;20.52;;;10.35;;
33926;SDS011;20485;50.992;5.550;2024-01-06T17:18:38;23.08;;;12.65;;
33926;SDS011;20485;50.992;5.550;2024-01-06T17:21:04;19.95;;;11.25;;
33926;SDS011;20485;50.992;5.550;2024-01-06T17:23:29;20.92;;;11.75;;
33926;SDS011;20485;50.992;5.550;2024-01-06T17:25:55;21.73;;;11.48;;
33926;SDS011;20485;50.992;5.550;2024-01-06T17:28:20;19.38;;;11.38;;
33926;SDS011;20485;50.992;5.550;2024-01-06T17:30:46;29.75;;;12.05;;
33926;SDS011;20485;50.992;5.550;2024-01-06T17:33:12;23.27;;;11.80;;
33926;SDS011;20485;50.992;5.550;2024-01-06T17:35:38;20.48;;;12.35;;
33926;SDS011;20485;50.992;5.550;2024-01-06T17:38:04;22.15;;;13.52;;
33926;SDS011;20485;50.992;5.550;2024-01-06T17:40:30;22.70;;;11.77;;
33926;SDS011;20485;50.992;5.550;2024-01-06T17:42:55;24.63;;;14.15;;
33926;SDS011;20485;50.992;5.550;2024-01-06T17:45:21;25.77;;;13.38;;
33926;SDS011;20485;50.992;5.550;2024-01-06T17:47:47;27.20;;;14.77;;
33926;SDS011;20485;50.992;5.550;2024-01-06T17:50:14;31.23;;;15.10;;
33926;SDS011;20485;50.992;5.550;2024-01-06T17:52:40;23.95;;;14.05;;
33926;SDS011;20485;50.992;5.550;2024-01-06T17:55:06;25.10;;;14.18;;
33926;SDS011;20485;50.992;5.550;2024-01-06T17:57:32;24.25;;;13.52;;
33926;SDS011;20485;50.992;5.550;2024-01-06T18:00:02;23.25;;;12.98;;
33926;SDS011;20485;50.992;5.550;2024-01-06T18:02:28;29.67;;;13.90;;
33926;SDS011;20485;50.992;5.550;2024-01-06T18:04:54;23.63;;;14.02;;
33926;SDS011;20485;50.992;5.550;2024-01-06T18:07:21;26.75;;;12.82;;
33926;SDS011;20485;50.992;5.550;2024-01-06T18:09:47;24.23;;;13.55;;
33926;SDS011;20485;50.992;5.550;2024-01-06T18:12:13;21.88;;;12.68;;
33926;SDS011;20485;50.992;5.550;2024-01-06T18:14:38;24.05;;;13.32;;
33926;SDS011;20485;50.992;5.550;2024-01-06T18:17:04;23.23;;;13.50;;
33926;SDS011;20485;50.992;5.550;2024-01-06T18:19:33;25.65;;;14.30;;
33926;SDS011;20485;50.992;5.550;2024-01-06T18:21:58;22.52;;;13.40;;
33926;SDS011;20485;50.992;5.550;2024-01-06T18:24:24;25.48;;;13.88;;
33926;SDS011;20485;50.992;5.550;2024-01-06T18:26:50;24.02;;;13.77;;
33926;SDS011;20485;50.992;5.550;2024-01-06T18:29:16;22.38;;;12.85;;
33926;SDS011;20485;50.992;5.550;2024-01-06T18:31:46;23.52;;;14.05;;
33926;SDS011;20485;50.992;5.550;2024-01-06T18:34:12;21.98;;;13.25;;
33926;SDS011;20485;50.992;5.550;2024-01-06T18:36:38;27.70;;;14.18;;
33926;SDS011;20485;50.992;5.550;2024-01-06T18:39:04;21.25;;;13.30;;
33926;SDS011;20485;50.992;5.550;2024-01-06T18:41:29;23.95;;;12.40;;
33926;SDS011;20485;50.992;5.550;2024-01-06T18:43:55;21.15;;;12.50;;
33926;SDS011;20485;50.992;5.550;2024-01-06T18:46:21;23.25;;;13.38;;
33926;SDS011;20485;50.992;5.550;2024-01-06T18:48:46;23.80;;;12.48;;
33926;SDS011;20485;50.992;5.550;2024-01-06T18:51:12;23.60;;;12.88;;
33926;SDS011;20485;50.992;5.550;2024-01-06T18:53:39;24.52;;;12.40;;
33926;SDS011;20485;50.992;5.550;2024-01-06T18:56:05;20.58;;;11.82;;
33926;SDS011;20485;50.992;5.550;2024-01-06T18:58:30;21.00;;;11.27;;
33926;SDS011;20485;50.992;5.550;2024-01-06T19:00:56;24.23;;;12.48;;
33926;SDS011;20485;50.992;5.550;2024-01-06T19:03:22;18.98;;;11.88;;
33926;SDS011;20485;50.992;5.550;2024-01-06T19:05:47;17.58;;;10.80;;
33926;SDS011;20485;50.992;5.550;2024-01-06T19:08:13;20.55;;;11.45;;
33926;SDS011;20485;50.992;5.550;2024-01-06T19:10:38;21.08;;;11.68;;
33926;SDS011;20485;50.992;5.550;2024-01-06T19:13:04;21.73;;;11.65;;
33926;SDS011;20485;50.992;5.550;2024-01-06T19:15:34;18.05;;;11.18;;
33926;SDS011;20485;50.992;5.550;2024-01-06T19:18:04;19.77;;;10.95;;
33926;SDS011;20485;50.992;5.550;2024-01-06T19:20:30;19.90;;;12.52;;
33926;SDS011;20485;50.992;5.550;2024-01-06T19:22:56;19.05;;;11.05;;
33926;SDS011;20485;50.992;5.550;2024-01-06T19:25:22;17.67;;;11.23;;
33926;SDS011;20485;50.992;5.550;2024-01-06T19:27:47;21.42;;;11.35;;
33926;SDS011;20485;50.992;5.550;2024-01-06T19:30:13;18.70;;;11.60;;
33926;SDS011;20485;50.992;5.550;2024-01-06T19:32:40;17.65;;;11.25;;
33926;SDS011;20485;50.992;5.550;2024-01-06T19:35:06;21.38;;;11.73;;
33926;SDS011;20485;50.992;5.550;2024-01-06T19:37:32;22.20;;;11.75;;
33926;SDS011;20485;50.992;5.550;2024-01-06T19:39:59;18.98;;;11.77;;
33926;SDS011;20485;50.992;5.550;2024-01-06T19:42:24;22.15;;;12.48;;
33926;SDS011;20485;50.992;5.550;2024-01-06T19:44:51;24.42;;;11.88;;
33926;SDS011;20485;50.992;5.550;2024-01-06T19:47:18;21.10;;;12.30;;
33926;SDS011;20485;50.992;5.550;2024-01-06T19:49:44;20.08;;;11.77;;
33926;SDS011;20485;50.992;5.550;2024-01-06T19:52:10;21.42;;;12.57;;
33926;SDS011;20485;50.992;5.550;2024-01-06T19:54:36;22.00;;;12.60;;
33926;SDS011;20485;50.992;5.550;2024-01-06T19:57:03;22.52;;;12.25;;
33926;SDS011;20485;50.992;5.550;2024-01-06T19:59:29;22.17;;;12.82;;
33926;SDS011;20485;50.992;5.550;2024-01-06T20:01:54;22.38;;;12.82;;
33926;SDS011;20485;50.992;5.550;2024-01-06T20:04:20;25.20;;;13.40;;
33926;SDS011;20485;50.992;5.550;2024-01-06T20:06:46;22.67;;;13.98;;
33926;SDS011;20485;50.992;5.550;2024-01-06T20:09:12;27.58;;;14.88;;
33926;SDS011;20485;50.992;5.550;2024-01-06T20:11:37;26.75;;;15.32;;
33926;SDS011;20485;50.992;5.550;2024-01-06T20:14:03;30.77;;;14.75;;
33926;SDS011;20485;50.992;5.550;2024-01-06T20:16:29;29.08;;;14.88;;
33926;SDS011;20485;50.992;5.550;2024-01-06T20:18:55;34.10;;;17.52;;
33926;SDS011;20485;50.992;5.550;2024-01-06T20:21:21;32.22;;;16.95;;
33926;SDS011;20485;50.992;5.550;2024-01-06T20:23:47;31.63;;;16.35;;
33926;SDS011;20485;50.992;5.550;2024-01-06T20:26:13;31.35;;;15.95;;
33926;SDS011;20485;50.992;5.550;2024-01-06T20:28:40;32.38;;;15.73;;
33926;SDS011;20485;50.992;5.550;2024-01-06T20:31:06;28.05;;;15.52;;
33926;SDS011;20485;50.992;5.550;2024-01-06T20:33:32;30.65;;;16.42;;
33926;SDS011;20485;50.992;5.550;2024-01-06T20:36:02;27.40;;;15.55;;
33926;SDS011;20485;50.992;5.550;2024-01-06T20:38:32;29.63;;;16.23;;
33926;SDS011;20485;50.992;5.550;2024-01-06T20:40:58;29.77;;;15.52;;
33926;SDS011;20485;50.992;5.550;2024-01-06T20:43:24;34.55;;;17.80;;
33926;SDS011;20485;50.992;5.550;2024-01-06T20:45:50;33.83;;;17.42;;
33926;SDS011;20485;50.992;5.550;2024-01-06T20:48:18;29.88;;;15.18;;
33926;SDS011;20485;50.992;5.550;2024-01-06T20:50:44;29.48;;;15.32;;
33926;SDS011;20485;50.992;5.550;2024-01-06T20:53:10;28.38;;;16.50;;
33926;SDS011;20485;50.992;5.550;2024-01-06T20:55:36;35.03;;;17.17;;
33926;SDS011;20485;50.992;5.550;2024-01-06T20:58:02;30.05;;;16.80;;
33926;SDS011;20485;50.992;5.550;2024-01-06T21:00:27;33.30;;;16.63;;
33926;SDS011;20485;50.992;5.550;2024-01-06T21:02:57;29.27;;;16.80;;
33926;SDS011;20485;50.992;5.550;2024-01-06T21:05:26;31.65;;;17.65;;
33926;SDS011;20485;50.992;5.550;2024-01-06T21:07:52;36.85;;;18.23;;
33926;SDS011;20485;50.992;5.550;2024-01-06T21:10:19;32.28;;;16.83;;
33926;SDS011;20485;50.992;5.550;2024-01-06T21:12:45;32.83;;;17.50;;
33926;SDS011;20485;50.992;5.550;2024-01-06T21:15:10;30.45;;;16.98;;
33926;SDS011;20485;50.992;5.550;2024-01-06T21:17:36;32.97;;;17.98;;
33926;SDS011;20485;50.992;5.550;2024-01-06T21:20:03;35.42;;;17.17;;
33926;SDS011;20485;50.992;5.550;2024-01-06T21:22:30;31.50;;;17.42;;
33926;SDS011;20485;50.992;5.550;2024-01-06T21:24:56;35.72;;;18.73;;
33926;SDS011;20485;50.992;5.550;2024-01-06T21:27:22;32.20;;;17.63;;
33926;SDS011;20485;50.992;5.550;2024-01-06T21:29:47;36.92;;;18.60;;
33926;SDS011;20485;50.992;5.550;2024-01-06T21:32:13;32.95;;;18.38;;
33926;SDS011;20485;50.992;5.550;2024-01-06T21:34:39;40.13;;;18.52;;
33926;SDS011;20485;50.992;5.550;2024-01-06T21:37:05;35.95;;;18.48;;
33926;SDS011;20485;50.992;5.550;2024-01-06T21:39:30;45.60;;;20.27;;
33926;SDS011;20485;50.992;5.550;2024-01-06T21:41:56;39.22;;;19.58;;
33926;SDS011;20485;50.992;5.550;2024-01-06T21:44:21;44.03;;;20.20;;
33926;SDS011;20485;50.992;5.550;2024-01-06T21:46:49;38.20;;;18.52;;
33926;SDS011;20485;50.992;5.550;2024-01-06T21:49:16;43.85;;;20.40;;
33926;SDS011;20485;50.992;5.550;2024-01-06T21:51:48;43.42;;;19.67;;
33926;SDS011;20485;50.992;5.550;2024-01-06T21:54:15;37.45;;;20.15;;
33926;SDS011;20485;50.992;5.550;2024-01-06T21:56:42;41.63;;;20.33;;
33926;SDS011;20485;50.992;5.550;2024-01-06T21:59:09;43.38;;;21.25;;
33926;SDS011;20485;50.992;5.550;2024-01-06T22:01:36;44.22;;;20.02;;
33926;SDS011;20485;50.992;5.550;2024-01-06T22:04:07;48.30;;;23.17;;
33926;SDS011;20485;50.992;5.550;2024-01-06T22:06:34;51.72;;;23.38;;
33926;SDS011;20485;50.992;5.550;2024-01-06T22:09:00;53.25;;;22.85;;
33926;SDS011;20485;50.992;5.550;2024-01-06T22:11:26;48.58;;;21.83;;
33926;SDS011;20485;50.992;5.550;2024-01-06T22:13:52;47.70;;;21.85;;
33926;SDS011;20485;50.992;5.550;2024-01-06T22:16:18;51.70;;;22.85;;
33926;SDS011;20485;50.992;5.550;2024-01-06T22:18:44;49.70;;;23.88;;
33926;SDS011;20485;50.992;5.550;2024-01-06T22:21:10;60.58;;;24.30;;
33926;SDS011;20485;50.992;5.550;2024-01-06T22:23:37;52.95;;;23.73;;
33926;SDS011;20485;50.992;5.550;2024-01-06T22:26:03;50.83;;;22.23;;
33926;SDS011;20485;50.992;5.550;2024-01-06T22:28:28;51.30;;;22.95;;
33926;SDS011;20485;50.992;5.550;2024-01-06T22:30:54;56.13;;;25.08;;
33926;SDS011;20485;50.992;5.550;2024-01-06T22:33:20;52.78;;;23.98;;
33926;SDS011;20485;50.992;5.550;2024-01-06T22:35:46;64.47;;;25.98;;
33926;SDS011;20485;50.992;5.550;2024-01-06T22:38:11;55.42;;;24.23;;
33926;SDS011;20485;50.992;5.550;2024-01-06T22:40:37;60.58;;;26.08;;
33926;SDS011;20485;50.992;5.550;2024-01-06T22:43:03;58.05;;;24.25;;
33926;SDS011;20485;50.992;5.550;2024-01-06T22:45:28;54.67;;;25.02;;
33926;SDS011;20485;50.992;5.550;2024-01-06T22:47:55;53.75;;;24.55;;
33926;SDS011;20485;50.992;5.550;2024-01-06T22:50:24;55.25;;;23.90;;
33926;SDS011;20485;50.992;5.550;2024-01-06T22:52:50;49.50;;;23.65;;
33926;SDS011;20485;50.992;5.550;2024-01-06T22:55:16;48.83;;;22.85;;
33926;SDS011;20485;50.992;5.550;2024-01-06T22:57:42;49.30;;;23.90;;
33926;SDS011;20485;50.992;5.550;2024-01-06T23:00:08;56.75;;;23.42;;
33926;SDS011;20485;50.992;5.550;2024-01-06T23:02:51;53.47;;;24.38;;
33926;SDS011;20485;50.992;5.550;2024-01-06T23:05:17;50.70;;;24.17;;
33926;SDS011;20485;50.992;5.550;2024-01-06T23:07:43;49.17;;;24.13;;
33926;SDS011;20485;50.992;5.550;2024-01-06T23:10:09;57.92;;;24.63;;
33926;SDS011;20485;50.992;5.550;2024-01-06T23:12:35;58.83;;;25.65;;
33926;SDS011;20485;50.992;5.550;2024-01-06T23:15:01;56.83;;;26.98;;
33926;SDS011;20485;50.992;5.550;2024-01-06T23:17:27;58.25;;;26.30;;
33926;SDS011;20485;50.992;5.550;2024-01-06T23:19:53;57.03;;;26.25;;
33926;SDS011;20485;50.992;5.550;2024-01-06T23:22:19;49.33;;;24.92;;
33926;SDS011;20485;50.992;5.550;2024-01-06T23:24:45;53.95;;;25.42;;
33926;SDS011;20485;50.992;5.550;2024-01-06T23:27:10;50.08;;;23.90;;
33926;SDS011;20485;50.992;5.550;2024-01-06T23:29:36;45.78;;;22.05;;
33926;SDS011;20485;50.992;5.550;2024-01-06T23:32:05;38.72;;;21.38;;
33926;SDS011;20485;50.992;5.550;2024-01-06T23:34:31;42.13;;;20.50;;
33926;SDS011;20485;50.992;5.550;2024-01-06T23:36:57;40.80;;;20.98;;
33926;SDS011;20485;50.992;5.550;2024-01-06T23:39:23;40.28;;;20.02;;
33926;SDS011;20485;50.992;5.550;2024-01-06T23:41:49;42.50;;;20.10;;
33926;SDS011;20485;50.992;5.550;2024-01-06T23:44:15;39.63;;;20.73;;
33926;SDS011;20485;50.992;5.550;2024-01-06T23:46:41;41.03;;;21.55;;
33926;SDS011;20485;50.992;5.550;2024-01-06T23:49:06;46.55;;;20.45;;
33926;SDS011;20485;50.992;5.550;2024-01-06T23:51:32;41.70;;;20.90;;
33926;SDS011;20485;50.992;5.550;2024-01-06T23:53:58;42.25;;;20.70;;
33926;SDS011;20485;50.992;5.550;2024-01-06T23:56:24;41.08;;;21.05;;
33926;SDS011;20485;50.992;5.550;2024-01-06T23:58:49;37.25;;;20.13;;
